createdAt,value
2023-01-23T00:01:11.455Z,37.00
2023-01-23T00:04:38.457Z,40.90
2023-01-23T00:08:05.312Z,25.80
2023-01-23T00:11:32.351Z,23.90
2023-01-23T00:14:58.952Z,26.20
2023-01-23T00:18:25.857Z,26.50
2023-01-23T00:21:52.550Z,28.40
2023-01-23T00:25:19.595Z,27.30
2023-01-23T00:28:47.668Z,26.60
2023-01-23T00:32:14.749Z,25.70
2023-01-23T00:35:41.763Z,28.10
2023-01-23T00:39:14.450Z,28.90
2023-01-23T00:42:43.620Z,31.00
2023-01-23T00:46:10.688Z,31.50
2023-01-23T00:49:39.194Z,28.90
2023-01-23T00:53:06.404Z,32.10
2023-01-23T00:56:33.800Z,27.30
2023-01-23T01:00:00.511Z,30.80
2023-01-23T01:03:27.920Z,26.70
2023-01-23T01:06:54.822Z,29.20
2023-01-23T01:10:24.878Z,29.10
2023-01-23T01:13:51.546Z,24.30
2023-01-23T01:17:18.765Z,23.90
2023-01-23T01:20:47.979Z,21.60
2023-01-23T01:24:16.659Z,23.50
2023-01-23T01:27:43.912Z,23.60
2023-01-23T01:31:13.013Z,23.20
2023-01-23T01:34:39.858Z,20.80
2023-01-23T01:38:06.796Z,21.80
2023-01-23T01:41:34.158Z,20.10
2023-01-23T01:45:03.202Z,20.00
2023-01-23T01:48:33.639Z,24.20
2023-01-23T01:52:06.672Z,24.00
2023-01-23T01:55:34.574Z,25.40
2023-01-23T01:59:04.986Z,25.10
2023-01-23T02:02:35.033Z,21.00
2023-01-23T02:06:02.321Z,21.90
2023-01-23T02:09:33.652Z,25.70
2023-01-23T02:13:32.665Z,27.40
2023-01-23T02:17:01.520Z,23.20
2023-01-23T02:20:30.132Z,27.10
2023-01-23T02:24:13.099Z,22.40
2023-01-23T02:27:40.476Z,22.00
2023-01-23T02:31:08.977Z,22.60
2023-01-23T02:34:35.766Z,42.90
2023-01-23T02:38:08.305Z,29.30
2023-01-23T02:41:37.033Z,25.20
2023-01-23T02:45:06.994Z,21.60
2023-01-23T02:48:34.967Z,21.00
2023-01-23T02:52:03.596Z,18.00
2023-01-23T02:55:32.006Z,18.70
2023-01-23T02:59:16.570Z,21.00
2023-01-23T03:02:43.688Z,19.70
2023-01-23T03:06:11.874Z,17.30
2023-01-23T03:09:39.830Z,19.90
2023-01-23T03:13:08.867Z,21.50
2023-01-23T03:16:38.316Z,18.00
2023-01-23T03:20:07.645Z,19.60
2023-01-23T03:23:34.664Z,32.40
2023-01-23T03:27:01.824Z,27.40
2023-01-23T03:30:31.760Z,20.30
2023-01-23T03:33:58.582Z,15.90
2023-01-23T03:37:25.344Z,19.30
2023-01-23T03:41:11.974Z,19.50
2023-01-23T03:44:39.269Z,19.50
2023-01-23T03:48:06.250Z,20.40
2023-01-23T03:51:34.088Z,17.70
2023-01-23T03:55:01.074Z,19.40
2023-01-23T03:58:28.243Z,16.80
2023-01-23T04:01:58.284Z,21.40
2023-01-23T04:05:25.025Z,16.90
2023-01-23T04:08:52.233Z,18.10
2023-01-23T04:12:19.522Z,18.50
2023-01-23T04:15:48.606Z,20.00
2023-01-23T04:19:15.354Z,18.90
2023-01-23T04:22:42.066Z,18.90
2023-01-23T04:26:09.072Z,21.10
2023-01-23T04:29:36.707Z,20.10
2023-01-23T04:33:04.086Z,17.90
2023-01-23T04:36:34.051Z,22.30
2023-01-23T04:40:00.856Z,20.10
2023-01-23T04:43:29.715Z,21.80
2023-01-23T04:46:56.430Z,17.00
2023-01-23T04:50:23.854Z,19.20
2023-01-23T04:53:51.930Z,19.00
2023-01-23T04:57:18.842Z,17.50
2023-01-23T05:00:45.733Z,18.90
2023-01-23T05:04:13.018Z,19.60
2023-01-23T05:07:40.411Z,17.60
2023-01-23T05:11:09.665Z,17.20
2023-01-23T05:14:36.858Z,19.10
2023-01-23T05:18:04.744Z,19.60
2023-01-23T05:21:35.055Z,21.40
2023-01-23T05:25:02.028Z,22.80
2023-01-23T05:28:30.063Z,21.10
2023-01-23T05:31:56.816Z,21.30
2023-01-23T05:35:39.831Z,25.40
2023-01-23T05:39:07.820Z,19.30
2023-01-23T05:42:34.859Z,20.50
2023-01-23T05:46:15.085Z,19.80
2023-01-23T05:49:47.013Z,20.70
2023-01-23T05:53:14.099Z,22.00
2023-01-23T05:56:41.829Z,23.70
2023-01-23T06:00:27.709Z,19.40
2023-01-23T06:04:16.491Z,24.20
2023-01-23T06:07:51.534Z,24.10
2023-01-23T06:11:18.785Z,28.10
2023-01-23T06:14:45.338Z,31.60
2023-01-23T06:18:12.713Z,26.50
2023-01-23T06:21:40.749Z,26.00
2023-01-23T06:25:08.848Z,32.60
2023-01-23T06:28:35.611Z,26.30
2023-01-23T06:32:03.971Z,56.40
2023-01-23T06:35:30.605Z,53.00
2023-01-23T06:38:57.074Z,33.90
2023-01-23T06:42:28.495Z,32.20
2023-01-23T06:45:55.436Z,36.60
2023-01-23T06:49:22.649Z,29.50
2023-01-23T06:52:49.432Z,25.70
2023-01-23T06:56:16.562Z,23.60
2023-01-23T06:59:43.848Z,24.40
2023-01-23T07:03:12.158Z,25.20
2023-01-23T07:06:39.015Z,24.50
2023-01-23T07:10:06.441Z,26.00
2023-01-23T07:13:34.020Z,20.20
2023-01-23T07:17:01.582Z,25.10
2023-01-23T07:20:30.179Z,21.80
2023-01-23T07:23:57.985Z,26.10
2023-01-23T07:27:24.302Z,28.20
2023-01-23T07:30:54.533Z,29.50
2023-01-23T07:34:21.611Z,25.80
2023-01-23T07:37:48.438Z,26.10
2023-01-23T07:41:16.007Z,22.90
2023-01-23T07:44:42.714Z,25.90
2023-01-23T07:48:09.574Z,28.80
2023-01-23T07:51:37.136Z,27.50
2023-01-23T07:55:10.137Z,27.60
2023-01-23T08:02:11.227Z,27.20
2023-01-23T08:05:39.413Z,31.80
2023-01-23T08:09:09.113Z,26.60
2023-01-23T08:12:38.069Z,89.70
2023-01-23T08:16:12.635Z,82.30
2023-01-23T08:19:42.872Z,72.90
2023-01-23T08:23:13.942Z,80.10
2023-01-23T08:26:45.072Z,102.00
2023-01-23T08:30:20.136Z,40.80
2023-01-23T08:33:50.948Z,58.40
2023-01-23T08:37:22.317Z,44.60
2023-01-23T08:40:55.730Z,31.30
2023-01-23T08:44:22.767Z,31.90
2023-01-23T08:47:54.823Z,30.10
2023-01-23T08:51:21.833Z,32.60
2023-01-23T08:54:51.293Z,34.70
2023-01-23T08:58:18.948Z,36.80
2023-01-23T09:01:48.425Z,39.50
2023-01-23T09:05:17.869Z,33.50
2023-01-23T09:08:53.230Z,42.60
2023-01-23T09:12:20.225Z,34.80
2023-01-23T09:15:47.574Z,36.30
2023-01-23T09:19:16.029Z,35.90
2023-01-23T09:22:43.143Z,42.90
2023-01-23T09:26:12.106Z,39.50
2023-01-23T09:29:39.484Z,39.00
2023-01-23T09:33:06.535Z,36.90
2023-01-23T09:36:42.568Z,37.20
2023-01-23T09:40:20.385Z,50.40
2023-01-23T09:43:54.926Z,51.10
2023-01-23T09:47:30.175Z,43.50
2023-01-23T09:51:02.975Z,39.60
2023-01-23T09:54:44.729Z,33.90
2023-01-23T09:58:21.192Z,32.10
2023-01-23T10:01:47.630Z,35.40
2023-01-23T10:05:20.492Z,32.20
2023-01-23T10:09:00.107Z,30.60
2023-01-23T10:12:42.043Z,28.80
2023-01-23T10:16:49.829Z,29.60
2023-01-23T10:20:44.222Z,32.40
2023-01-23T10:24:39.873Z,37.10
2023-01-23T10:28:25.085Z,52.50
2023-01-23T10:31:57.457Z,58.20
2023-01-23T10:35:31.333Z,55.80
2023-01-23T10:39:04.330Z,44.10
2023-01-23T10:42:32.254Z,42.10
2023-01-23T10:46:00.198Z,29.80
2023-01-23T10:49:35.496Z,39.20
2023-01-23T10:53:10.551Z,38.10
2023-01-23T10:56:48.382Z,35.70
2023-01-23T11:00:26.351Z,36.50
2023-01-23T11:03:53.164Z,33.70
2023-01-23T11:07:21.595Z,37.90
2023-01-23T11:10:49.024Z,35.90
2023-01-23T11:14:21.977Z,38.70
2023-01-23T11:17:50.886Z,40.70
2023-01-23T11:21:26.265Z,36.60
2023-01-23T11:24:54.139Z,37.90
2023-01-23T11:28:30.005Z,39.20
2023-01-23T11:32:01.504Z,40.50
2023-01-23T11:35:42.563Z,35.60
2023-01-23T11:39:26.185Z,39.90
2023-01-23T11:42:54.340Z,48.00
2023-01-23T11:46:46.738Z,49.10
2023-01-23T11:50:54.840Z,49.10
2023-01-23T11:54:41.600Z,42.00
2023-01-23T11:58:21.017Z,58.80
2023-01-23T12:02:04.081Z,55.60
2023-01-23T12:05:46.908Z,55.80
2023-01-23T12:09:20.479Z,55.00
2023-01-23T12:13:02.303Z,51.50
2023-01-23T12:16:45.437Z,48.40
2023-01-23T12:20:39.000Z,52.80
2023-01-23T12:24:22.866Z,43.60
2023-01-23T12:27:58.085Z,47.70
2023-01-23T12:31:48.331Z,45.70
2023-01-23T12:35:35.601Z,44.40
2023-01-23T12:39:18.858Z,51.00
2023-01-23T12:42:52.314Z,48.60
2023-01-23T12:46:25.697Z,47.10
2023-01-23T12:49:58.540Z,46.20
2023-01-23T12:54:07.243Z,45.90
2023-01-23T12:57:59.456Z,50.70
2023-01-23T13:01:52.057Z,54.80
2023-01-23T13:05:25.078Z,50.70
2023-01-23T13:09:08.879Z,55.30
2023-01-23T13:12:40.908Z,42.90
2023-01-23T13:16:14.742Z,40.30
2023-01-23T13:20:02.973Z,48.40
2023-01-23T13:23:35.509Z,43.30
2023-01-23T13:27:22.491Z,41.80
2023-01-23T13:31:09.937Z,41.20
2023-01-23T13:34:42.075Z,58.50
2023-01-23T13:38:38.108Z,51.20
2023-01-23T13:42:47.065Z,44.20
2023-01-23T13:46:31.425Z,75.20
2023-01-23T14:20:40.959Z,49.00
2023-01-23T14:24:25.107Z,44.90
2023-01-23T14:28:03.328Z,35.20
2023-01-23T14:31:31.990Z,39.80
2023-01-23T14:34:58.505Z,44.90
2023-01-23T14:38:34.519Z,38.80
2023-01-23T14:42:03.289Z,69.40
2023-01-23T14:45:35.163Z,54.70
2023-01-23T14:49:02.959Z,48.70
2023-01-23T14:52:31.894Z,51.40
2023-01-23T14:56:01.068Z,41.20
2023-01-23T14:59:32.881Z,48.80
2023-01-23T15:02:59.951Z,50.60
2023-01-23T15:06:32.921Z,46.00
2023-01-23T15:09:59.774Z,50.70
2023-01-23T15:13:42.252Z,40.70
2023-01-23T15:17:15.044Z,44.60
2023-01-23T15:20:42.957Z,46.70
2023-01-23T15:24:29.715Z,41.80
2023-01-23T15:28:00.288Z,46.70
2023-01-23T15:31:31.893Z,38.20
2023-01-23T15:35:01.684Z,42.30
2023-01-23T15:38:30.891Z,43.70
2023-01-23T15:41:59.927Z,44.90
2023-01-23T15:45:26.316Z,41.10
2023-01-23T15:48:53.366Z,43.20
2023-01-23T15:52:31.534Z,50.60
2023-01-23T15:56:02.589Z,45.60
2023-01-23T15:59:34.429Z,40.60
2023-01-23T16:03:02.869Z,43.40
2023-01-23T16:06:29.799Z,43.00
2023-01-23T16:09:56.920Z,46.50
2023-01-23T16:13:24.697Z,52.10
2023-01-23T16:16:51.078Z,55.40
2023-01-23T16:20:20.712Z,47.80
2023-01-23T16:23:48.137Z,53.40
2023-01-23T16:27:27.739Z,54.50
2023-01-23T16:30:54.857Z,46.40
2023-01-23T16:34:21.729Z,45.60
2023-01-23T16:37:50.217Z,39.60
2023-01-23T16:41:17.823Z,44.00
2023-01-23T16:44:44.897Z,39.60
2023-01-23T16:48:21.664Z,38.20
2023-01-23T16:52:00.492Z,50.70
2023-01-23T16:55:31.835Z,60.60
2023-01-23T16:58:59.741Z,49.30
2023-01-23T17:02:33.131Z,59.40
2023-01-23T17:06:00.509Z,66.70
2023-01-23T17:09:27.381Z,70.00
2023-01-23T17:12:58.801Z,65.60
2023-01-23T17:16:27.857Z,67.60
2023-01-23T17:19:55.994Z,78.40
2023-01-23T17:23:23.054Z,81.10
2023-01-23T17:26:52.107Z,90.80
2023-01-23T17:30:21.188Z,81.20
2023-01-23T17:33:48.104Z,72.70
2023-01-23T17:37:22.706Z,58.90
2023-01-23T17:44:16.240Z,61.10
2023-01-23T17:47:52.776Z,45.50
2023-01-23T17:51:21.647Z,42.20
2023-01-23T17:54:49.222Z,50.40
2023-01-23T17:58:20.424Z,59.20
2023-01-23T18:01:47.890Z,42.10
2023-01-23T18:05:18.780Z,44.70
2023-01-23T18:08:48.328Z,47.80
2023-01-23T18:12:23.139Z,48.30
2023-01-23T18:16:03.507Z,47.70
2023-01-23T18:19:31.806Z,53.30
2023-01-23T18:23:02.742Z,59.00
2023-01-23T18:26:49.189Z,54.30
2023-01-23T18:30:38.665Z,53.40
2023-01-23T18:34:18.375Z,49.50
2023-01-23T18:38:04.445Z,59.40
2023-01-23T18:41:40.123Z,47.30
2023-01-23T18:45:18.397Z,45.30
2023-01-23T18:48:50.947Z,52.30
2023-01-23T18:52:28.626Z,54.10
2023-01-23T18:56:14.557Z,50.50
2023-01-23T18:59:53.960Z,47.70
2023-01-23T19:03:28.559Z,47.90
2023-01-23T19:07:02.224Z,46.40
2023-01-23T19:10:48.140Z,48.70
2023-01-23T19:14:26.162Z,49.80
2023-01-23T19:18:08.733Z,49.20
2023-01-23T19:21:44.518Z,50.80
2023-01-23T19:25:19.673Z,48.70
2023-01-23T19:28:51.199Z,58.00
2023-01-23T19:32:23.260Z,55.10
2023-01-23T19:35:57.505Z,50.70
2023-01-23T19:39:33.882Z,56.00
2023-01-23T19:43:14.428Z,86.70
2023-01-23T19:46:50.311Z,96.30
2023-01-23T19:50:24.101Z,89.80
2023-01-23T19:53:51.387Z,78.60
2023-01-23T19:57:20.297Z,80.20
2023-01-23T20:00:50.251Z,74.90
2023-01-23T20:04:21.313Z,71.90
2023-01-23T20:07:52.733Z,66.80
2023-01-23T20:11:21.311Z,53.80
2023-01-23T20:14:53.613Z,59.10
2023-01-23T20:18:33.970Z,48.90
2023-01-23T20:22:13.968Z,55.70
2023-01-23T20:25:44.823Z,49.10
2023-01-23T20:29:18.166Z,53.10
2023-01-23T20:32:50.239Z,59.20
2023-01-23T20:36:21.582Z,62.80
2023-01-23T20:43:39.329Z,98.60
2023-01-23T20:47:10.410Z,84.70
2023-01-23T20:50:38.613Z,86.90
2023-01-23T20:54:06.704Z,74.80
2023-01-23T20:57:54.686Z,67.50
2023-01-23T21:01:32.221Z,75.10
2023-01-23T21:05:02.852Z,69.30
2023-01-23T21:08:32.576Z,55.70
2023-01-23T21:12:03.133Z,54.80
2023-01-23T21:15:36.715Z,52.90
2023-01-23T21:19:07.191Z,63.80
2023-01-23T21:22:42.349Z,62.70
2023-01-23T21:26:10.639Z,56.80
2023-01-23T21:29:39.997Z,47.50
2023-01-23T21:33:15.737Z,55.80
2023-01-23T21:36:45.181Z,61.60
2023-01-23T21:40:19.231Z,63.10
2023-01-23T21:43:59.075Z,73.90
2023-01-23T21:47:38.059Z,53.00
2023-01-23T21:51:17.386Z,74.20
2023-01-23T21:54:47.628Z,51.20
2023-01-23T21:58:17.974Z,53.50
2023-01-23T22:05:14.739Z,119.80
2023-01-23T22:08:42.023Z,106.50
2023-01-23T22:12:10.353Z,105.20
2023-01-23T22:15:37.200Z,94.20
2023-01-23T22:19:04.020Z,96.00
2023-01-23T22:22:31.930Z,127.30
2023-01-23T22:26:01.310Z,72.40
2023-01-23T22:29:28.212Z,67.70
2023-01-23T22:32:55.573Z,87.90
2023-01-23T22:36:23.875Z,99.80
2023-01-23T22:39:53.040Z,87.10
2023-01-23T22:43:19.749Z,58.30
2023-01-23T22:46:47.042Z,57.40
2023-01-23T22:50:16.222Z,58.70
2023-01-23T22:53:59.105Z,49.60
2023-01-23T22:57:27.617Z,53.20
2023-01-23T23:00:55.664Z,46.40
2023-01-23T23:04:22.904Z,44.90
2023-01-23T23:07:49.852Z,47.60
2023-01-23T23:11:20.552Z,48.40
2023-01-23T23:14:48.053Z,52.40
2023-01-23T23:18:14.986Z,81.90
2023-01-23T23:21:43.675Z,77.00
2023-01-23T23:25:14.002Z,71.70
2023-01-23T23:28:43.238Z,66.10
2023-01-23T23:32:14.778Z,56.80
2023-01-23T23:35:41.593Z,52.20
2023-01-23T23:39:09.733Z,70.50
2023-01-23T23:42:36.458Z,62.00
2023-01-23T23:46:05.676Z,57.20
2023-01-23T23:49:32.877Z,49.60
2023-01-23T23:53:01.032Z,69.30
2023-01-23T23:56:32.566Z,60.30
2023-01-23T23:59:59.656Z,71.40
